createdAt,value
2018-07-25T00:01:56.127Z,4.97
2018-07-25T00:04:36.837Z,4.55
2018-07-25T00:07:17.877Z,4.58
2018-07-25T00:09:58.381Z,4.62
2018-07-25T00:12:26.908Z,5.10
2018-07-25T00:15:08.096Z,4.53
2018-07-25T00:17:48.636Z,5.20
2018-07-25T00:20:16.887Z,6.22
2018-07-25T00:22:57.039Z,5.40
2018-07-25T00:25:37.790Z,4.80
2018-07-25T00:28:18.581Z,4.87
2018-07-25T00:30:46.850Z,4.50
2018-07-25T00:33:27.097Z,5.05
2018-07-25T00:36:07.834Z,4.40
2018-07-25T00:38:48.476Z,5.55
2018-07-25T00:41:16.731Z,5.12
2018-07-25T00:43:56.930Z,4.87
2018-07-25T00:46:37.574Z,5.65
2018-07-25T00:49:05.829Z,6.15
2018-07-25T00:51:46.000Z,5.40
2018-07-25T00:54:15.248Z,5.35
2018-07-25T00:56:43.481Z,5.30
2018-07-25T00:59:24.604Z,5.70
2018-07-25T01:01:52.833Z,6.05
2018-07-25T01:04:33.043Z,5.50
2018-07-25T01:07:13.818Z,5.83
2018-07-25T01:09:54.552Z,6.20
2018-07-25T01:12:35.372Z,5.30
2018-07-25T01:15:16.139Z,5.80
2018-07-25T01:17:44.381Z,5.50
2018-07-25T01:20:24.692Z,5.50
2018-07-25T01:22:52.988Z,5.25
2018-07-25T01:25:34.045Z,5.17
2018-07-25T01:28:14.699Z,4.85
2018-07-25T01:30:55.290Z,4.80
2018-07-25T01:33:35.933Z,5.30
2018-07-25T01:36:16.647Z,5.50
2018-07-25T01:38:57.297Z,5.00
2018-07-25T01:41:25.574Z,4.97
2018-07-25T01:44:06.861Z,4.70
2018-07-25T01:46:47.491Z,5.00
2018-07-25T01:49:28.261Z,5.37
2018-07-25T01:52:08.789Z,5.53
2018-07-25T01:54:37.077Z,4.92
2018-07-25T01:57:17.222Z,4.75
2018-07-25T01:59:45.514Z,5.12
2018-07-25T02:02:25.720Z,5.10
2018-07-25T02:05:06.521Z,4.90
2018-07-25T02:07:47.671Z,4.70
2018-07-25T02:10:15.903Z,5.00
2018-07-25T02:12:56.286Z,5.10
2018-07-25T02:15:25.593Z,4.87
2018-07-25T02:18:07.089Z,5.00
2018-07-25T02:20:37.132Z,5.05
2018-07-25T02:23:18.209Z,4.70
2018-07-25T02:25:47.025Z,5.65
2018-07-25T02:28:15.075Z,5.45
2018-07-25T02:47:59.467Z,5.70
2018-07-25T02:50:27.735Z,5.83
2018-07-25T02:52:55.952Z,5.60
2018-07-25T02:55:24.552Z,5.90
2018-07-25T02:57:52.765Z,5.33
2018-07-25T03:00:23.657Z,5.12
2018-07-25T03:02:52.002Z,5.40
2018-07-25T03:05:20.317Z,5.08
2018-07-25T03:07:48.974Z,5.95
2018-07-25T03:10:17.282Z,5.30
2018-07-25T03:12:57.675Z,5.72
2018-07-25T03:15:38.493Z,5.30
2018-07-25T03:18:19.150Z,6.00
2018-07-25T03:20:47.149Z,5.92
2018-07-25T03:23:27.592Z,5.75
2018-07-25T03:26:08.373Z,5.30
2018-07-25T03:28:42.596Z,5.55
2018-07-25T03:31:10.784Z,5.47
2018-07-25T03:33:39.044Z,5.50
2018-07-25T03:36:07.266Z,5.70
2018-07-25T03:38:48.256Z,5.10
2018-07-25T03:41:16.485Z,4.90
2018-07-25T03:43:44.714Z,5.10
2018-07-25T03:46:25.670Z,6.30
2018-07-25T03:48:53.951Z,5.15
2018-07-25T03:51:22.704Z,4.95
2018-07-25T03:54:03.277Z,4.97
2018-07-25T03:56:31.521Z,4.97
2018-07-25T03:59:00.069Z,5.60
2018-07-25T04:01:35.111Z,4.85
2018-07-25T04:04:15.275Z,5.40
2018-07-25T04:06:55.994Z,5.10
2018-07-25T04:09:36.672Z,4.97
2018-07-25T04:12:17.373Z,5.20
2018-07-25T04:14:49.049Z,5.60
2018-07-25T04:17:17.316Z,5.90
2018-07-25T04:19:45.592Z,6.30
2018-07-25T04:22:19.256Z,6.03
2018-07-25T04:24:49.224Z,5.30
2018-07-25T04:27:18.170Z,5.83
2018-07-25T04:47:04.726Z,4.90
2018-07-25T04:49:33.037Z,5.17
2018-07-25T04:52:14.316Z,5.30
2018-07-25T04:54:55.633Z,5.30
2018-07-25T04:57:23.846Z,5.28
2018-07-25T04:59:57.433Z,5.28
2018-07-25T05:02:38.593Z,6.25
2018-07-25T05:05:19.656Z,5.67
2018-07-25T05:07:59.984Z,5.67
2018-07-25T05:10:40.614Z,6.03
2018-07-25T05:13:08.827Z,4.83
2018-07-25T05:15:37.082Z,5.62
2018-07-25T05:18:18.109Z,5.45
2018-07-25T05:20:58.861Z,5.33
2018-07-25T05:23:27.093Z,5.50
2018-07-25T05:25:55.431Z,5.80
2018-07-25T05:28:24.006Z,5.25
2018-07-25T05:30:57.752Z,7.10
2018-07-25T05:33:25.969Z,5.30
2018-07-25T05:35:58.268Z,6.10
2018-07-25T05:38:26.543Z,5.92
2018-07-25T05:41:07.094Z,6.65
2018-07-25T05:43:36.809Z,8.30
2018-07-25T05:46:06.008Z,6.55
2018-07-25T05:48:34.243Z,6.40
2018-07-25T05:51:02.565Z,6.25
2018-07-25T05:53:32.564Z,6.10
2018-07-25T05:56:02.377Z,6.37
2018-07-25T05:58:30.845Z,6.10
2018-07-25T06:01:00.925Z,5.87
2018-07-25T06:03:29.295Z,5.50
2018-07-25T06:06:01.523Z,6.17
2018-07-25T06:08:42.619Z,7.28
2018-07-25T06:11:10.980Z,6.20
2018-07-25T06:13:39.264Z,6.33
2018-07-25T06:16:13.287Z,6.22
2018-07-25T06:18:45.239Z,6.10
2018-07-25T06:21:13.522Z,5.35
2018-07-25T06:23:41.787Z,5.83
2018-07-25T06:26:22.849Z,5.72
2018-07-25T06:29:03.582Z,6.20
2018-07-25T06:31:44.247Z,6.10
2018-07-25T06:34:13.357Z,6.10
2018-07-25T06:36:54.050Z,6.58
2018-07-25T06:39:34.850Z,5.67
2018-07-25T06:42:15.180Z,5.70
2018-07-25T06:44:55.900Z,5.40
2018-07-25T06:47:24.312Z,6.00
2018-07-25T06:49:52.496Z,4.80
2018-07-25T06:52:33.070Z,4.87
2018-07-25T06:55:05.432Z,5.05
2018-07-25T06:57:34.692Z,4.83
2018-07-25T07:00:07.145Z,4.75
2018-07-25T07:02:36.306Z,5.00
2018-07-25T07:05:16.932Z,4.60
2018-07-25T07:07:45.200Z,5.50
2018-07-25T07:10:16.438Z,5.33
2018-07-25T07:12:57.219Z,4.35
2018-07-25T07:15:37.917Z,5.30
2018-07-25T07:18:06.157Z,4.23
2018-07-25T07:20:34.375Z,4.65
2018-07-25T07:23:09.869Z,5.15
2018-07-25T07:25:38.100Z,4.95
2018-07-25T07:28:19.932Z,4.47
2018-07-25T07:30:51.888Z,5.00
2018-07-25T07:33:33.159Z,4.80
2018-07-25T07:36:03.656Z,5.42
2018-07-25T07:38:44.167Z,5.80
2018-07-25T07:41:17.844Z,4.70
2018-07-25T07:43:46.210Z,5.30
2018-07-25T07:46:14.504Z,4.00
2018-07-25T07:48:55.355Z,3.50
2018-07-25T07:51:36.192Z,3.77
2018-07-25T07:54:16.942Z,3.75
2018-07-25T07:56:45.277Z,3.40
2018-07-25T07:59:13.583Z,3.50
2018-07-25T08:01:41.744Z,3.80
2018-07-25T08:04:10.021Z,3.60
2018-07-25T08:06:38.281Z,3.72
2018-07-25T08:09:09.311Z,4.35
2018-07-25T08:11:42.704Z,3.10
2018-07-25T08:14:15.341Z,3.87
2018-07-25T08:16:45.589Z,2.80
2018-07-25T08:19:13.828Z,3.00
2018-07-25T08:21:46.868Z,3.00
2018-07-25T08:24:16.841Z,3.47
2018-07-25T08:26:46.756Z,2.42
2018-07-25T08:29:16.531Z,3.45
2018-07-25T08:31:49.294Z,3.90
2018-07-25T08:34:21.032Z,2.98
2018-07-25T08:37:01.166Z,3.72
2018-07-25T08:39:32.108Z,3.27
2018-07-25T08:42:03.390Z,3.20
2018-07-25T08:44:48.992Z,3.10
2018-07-25T08:47:19.376Z,3.30
2018-07-25T08:49:53.163Z,4.20
2018-07-25T08:52:24.399Z,3.17
2018-07-25T08:54:56.795Z,3.12
2018-07-25T08:57:29.653Z,2.70
2018-07-25T09:00:02.169Z,2.80
2018-07-25T09:02:43.612Z,2.90
2018-07-25T09:05:15.277Z,3.20
2018-07-25T09:07:47.499Z,3.00
2018-07-25T09:10:18.788Z,2.87
2018-07-25T09:12:55.698Z,2.67
2018-07-25T09:15:27.237Z,2.50
2018-07-25T09:18:03.352Z,2.60
2018-07-25T09:20:46.453Z,2.72
2018-07-25T09:23:20.943Z,2.87
2018-07-25T09:25:58.796Z,2.83
2018-07-25T09:28:36.172Z,2.30
2018-07-25T09:31:08.917Z,2.33
2018-07-25T09:33:44.004Z,2.02
2018-07-25T09:36:27.948Z,3.80
2018-07-25T09:39:05.620Z,3.03
2018-07-25T09:41:48.060Z,3.05
2018-07-25T09:44:31.260Z,2.60
2018-07-25T09:47:13.965Z,3.20
2018-07-25T09:49:57.563Z,3.65
2018-07-25T09:52:30.172Z,3.10
2018-07-25T09:55:12.853Z,2.22
2018-07-25T09:57:56.991Z,2.40
2018-07-25T10:00:44.134Z,2.70
2018-07-25T10:03:16.740Z,2.40
2018-07-25T10:05:59.289Z,2.52
2018-07-25T10:08:41.856Z,2.85
2018-07-25T10:11:25.020Z,3.25
2018-07-25T10:14:05.381Z,2.90
2018-07-25T10:16:48.062Z,2.80
2018-07-25T10:19:31.027Z,3.40
2018-07-25T10:22:06.536Z,2.87
2018-07-25T10:24:52.331Z,3.10
2018-07-25T10:27:35.728Z,3.20
2018-07-25T10:47:37.095Z,2.50
2018-07-25T10:50:10.963Z,2.17
2018-07-25T10:52:53.995Z,1.90
2018-07-25T10:55:36.960Z,2.10
2018-07-25T10:58:20.060Z,2.50
2018-07-25T11:01:03.824Z,2.08
2018-07-25T11:03:46.346Z,2.35
2018-07-25T11:06:29.645Z,2.40
2018-07-25T11:09:14.027Z,2.30
2018-07-25T11:11:49.515Z,2.62
2018-07-25T11:14:34.569Z,2.17
2018-07-25T11:17:06.384Z,12.23
2018-07-25T11:19:49.889Z,3.65
2018-07-25T11:22:32.035Z,2.20
2018-07-25T11:25:17.284Z,2.00
2018-07-25T11:27:49.875Z,2.20
2018-07-25T11:30:30.602Z,6.72
2018-07-25T11:33:10.992Z,2.12
2018-07-25T11:35:52.872Z,2.02
2018-07-25T11:38:21.141Z,1.80
2018-07-25T11:41:02.127Z,1.90
2018-07-25T11:43:42.545Z,2.10
2018-07-25T11:46:23.004Z,1.90
2018-07-25T11:49:03.604Z,1.70
2018-07-25T11:51:44.237Z,1.90
2018-07-25T11:54:12.625Z,1.90
2018-07-25T11:56:53.853Z,2.10
2018-07-25T11:59:34.832Z,1.97
2018-07-25T12:02:15.366Z,2.50
2018-07-25T12:04:56.345Z,2.30
2018-07-25T12:07:36.766Z,1.77
2018-07-25T12:10:17.287Z,2.10
2018-07-25T12:12:57.786Z,1.50
2018-07-25T12:15:38.296Z,1.57
2018-07-25T12:18:06.630Z,1.80
2018-07-25T12:20:34.900Z,2.63
2018-07-25T12:23:15.369Z,2.00
2018-07-25T12:25:43.636Z,1.73
2018-07-25T12:28:23.919Z,1.50
2018-07-25T12:31:04.415Z,2.23
2018-07-25T12:33:45.001Z,2.00
2018-07-25T12:36:26.006Z,2.63
2018-07-25T12:39:06.169Z,2.43
2018-07-25T12:41:46.734Z,2.10
2018-07-25T12:44:27.490Z,2.60
2018-07-25T12:46:55.793Z,2.20
2018-07-25T12:49:37.449Z,2.10
2018-07-25T12:52:05.731Z,1.90
2018-07-25T12:54:45.981Z,1.93
2018-07-25T12:57:15.325Z,1.97
2018-07-25T12:59:43.668Z,1.77
2018-07-25T13:02:14.450Z,1.80
2018-07-25T13:04:55.434Z,2.40
2018-07-25T13:07:30.076Z,2.00
2018-07-25T13:10:10.601Z,2.10
2018-07-25T13:12:39.752Z,1.97
2018-07-25T13:15:20.765Z,1.80
2018-07-25T13:17:56.668Z,2.20
2018-07-25T13:20:37.623Z,2.20
2018-07-25T13:23:05.958Z,2.47
2018-07-25T13:25:34.850Z,2.70
2018-07-25T13:28:03.105Z,2.77
2018-07-25T13:30:33.279Z,3.10
2018-07-25T13:33:13.504Z,3.83
2018-07-25T13:35:41.931Z,2.17
2018-07-25T13:38:10.681Z,2.30
2018-07-25T13:40:51.858Z,2.60
2018-07-25T13:43:20.105Z,2.23
2018-07-25T13:45:51.729Z,2.00
2018-07-25T13:48:33.068Z,2.20
2018-07-25T13:51:01.338Z,2.17
2018-07-25T13:53:42.401Z,3.07
2018-07-25T13:56:10.763Z,2.70
2018-07-25T13:58:53.793Z,2.03
2018-07-25T14:01:34.556Z,2.10
2018-07-25T14:04:02.794Z,1.90
2018-07-25T14:06:32.623Z,2.10
2018-07-25T14:09:09.624Z,2.20
2018-07-25T14:11:38.969Z,1.90
2018-07-25T14:14:20.115Z,2.50
2018-07-25T14:16:48.452Z,3.90
2018-07-25T14:19:16.798Z,2.27
2018-07-25T14:21:57.269Z,2.70
2018-07-25T14:24:37.828Z,2.60
2018-07-25T14:27:18.356Z,2.20
2018-07-25T14:29:46.675Z,2.33
2018-07-25T14:32:15.053Z,2.70
2018-07-25T14:34:55.411Z,2.20
2018-07-25T14:37:23.663Z,2.07
2018-07-25T14:40:04.982Z,2.70
2018-07-25T14:42:33.227Z,2.20
2018-07-25T14:45:01.440Z,2.23
2018-07-25T14:47:29.753Z,2.53
2018-07-25T14:49:58.017Z,2.50
2018-07-25T14:52:26.364Z,2.20
2018-07-25T14:54:54.634Z,2.30
2018-07-25T14:57:23.037Z,2.60
2018-07-25T14:59:51.256Z,2.80
2018-07-25T15:02:20.019Z,2.90
2018-07-25T15:04:48.324Z,2.50
2018-07-25T15:07:16.770Z,2.63
2018-07-25T15:09:45.196Z,2.20
2018-07-25T15:12:24.996Z,2.40
2018-07-25T15:14:53.230Z,2.50
2018-07-25T15:17:34.328Z,2.83
2018-07-25T15:20:02.637Z,3.87
2018-07-25T15:22:43.466Z,2.90
2018-07-25T15:25:12.461Z,2.10
2018-07-25T15:27:53.601Z,2.40
2018-07-25T15:30:34.132Z,2.90
2018-07-25T15:33:14.614Z,2.40
2018-07-25T15:35:55.233Z,2.40
2018-07-25T15:38:23.564Z,2.60
2018-07-25T15:41:04.347Z,3.20
2018-07-25T15:43:33.505Z,2.20
2018-07-25T15:46:15.471Z,2.93
2018-07-25T15:48:43.713Z,2.40
2018-07-25T15:51:11.925Z,2.37
2018-07-25T15:53:41.379Z,2.17
2018-07-25T15:56:21.544Z,3.17
2018-07-25T15:58:50.505Z,2.40
2018-07-25T16:01:30.882Z,2.10
2018-07-25T16:03:59.194Z,2.93
2018-07-25T16:06:40.373Z,2.60
2018-07-25T16:09:11.544Z,2.47
2018-07-25T16:11:40.427Z,3.13
2018-07-25T16:14:08.752Z,2.87
2018-07-25T16:16:37.147Z,2.67
2018-07-25T16:19:17.768Z,2.87
2018-07-25T16:21:58.253Z,2.47
2018-07-25T16:24:26.619Z,2.80
2018-07-25T16:26:56.828Z,2.30
2018-07-25T16:29:25.196Z,3.03
2018-07-25T16:31:53.726Z,12.33
2018-07-25T16:34:34.317Z,2.33
2018-07-25T16:37:14.826Z,2.60
2018-07-25T16:39:43.661Z,2.67
2018-07-25T16:42:24.118Z,2.50
2018-07-25T16:45:04.651Z,2.73
2018-07-25T16:47:45.285Z,2.67
2018-07-25T16:50:25.820Z,2.90
2018-07-25T16:52:54.358Z,2.43
2018-07-25T16:55:22.933Z,2.13
2018-07-25T16:58:03.758Z,2.57
2018-07-25T17:00:44.200Z,2.60
2018-07-25T17:03:24.807Z,2.30
2018-07-25T17:06:05.391Z,3.40
2018-07-25T17:08:33.769Z,2.90
2018-07-25T17:11:14.991Z,2.33
2018-07-25T17:13:45.619Z,2.70
2018-07-25T17:16:15.352Z,3.20
2018-07-25T17:18:44.937Z,3.33
2018-07-25T17:21:13.236Z,2.53
2018-07-25T17:23:53.667Z,3.02
2018-07-25T17:26:21.946Z,5.28
2018-07-25T17:29:02.149Z,2.80
2018-07-25T17:31:30.498Z,4.08
2018-07-25T17:33:59.813Z,2.92
2018-07-25T17:36:28.136Z,2.90
2018-07-25T17:38:57.243Z,2.75
2018-07-25T17:41:25.661Z,2.80
2018-07-25T17:44:06.253Z,2.87
2018-07-25T17:46:34.933Z,4.30
2018-07-25T17:49:03.323Z,2.80
2018-07-25T17:51:44.187Z,3.20
2018-07-25T17:54:20.084Z,4.28
2018-07-25T17:56:48.445Z,3.00
2018-07-25T17:59:29.049Z,3.80
2018-07-25T18:01:58.297Z,4.33
2018-07-25T18:04:39.327Z,2.90
2018-07-25T18:07:07.565Z,3.87
2018-07-25T18:09:36.017Z,4.30
2018-07-25T18:12:04.353Z,3.58
2018-07-25T18:14:45.322Z,3.45
2018-07-25T18:17:13.753Z,3.15
2018-07-25T18:19:42.020Z,3.40
2018-07-25T18:22:10.368Z,3.00
2018-07-25T18:24:50.765Z,3.70
2018-07-25T18:27:31.692Z,3.90
2018-07-25T18:30:12.210Z,3.80
2018-07-25T18:32:52.942Z,10.05
2018-07-25T18:35:21.185Z,6.90
2018-07-25T18:38:02.451Z,3.70
2018-07-25T18:40:43.779Z,3.45
2018-07-25T18:43:14.611Z,3.60
2018-07-25T18:45:43.606Z,3.37
2018-07-25T18:48:12.308Z,3.27
2018-07-25T18:50:40.637Z,3.90
2018-07-25T18:53:21.482Z,3.30
2018-07-25T18:56:02.080Z,3.40
2018-07-25T18:58:42.876Z,4.28
2018-07-25T19:01:23.770Z,3.17
2018-07-25T19:04:04.219Z,3.53
2018-07-25T19:06:32.943Z,3.70
2018-07-25T19:09:02.468Z,3.50
2018-07-25T19:11:44.748Z,3.35
2018-07-25T19:14:30.647Z,3.47
2018-07-25T19:17:11.741Z,4.03
2018-07-25T19:19:52.704Z,3.85
2018-07-25T19:22:22.041Z,3.62
2018-07-25T19:25:03.116Z,4.40
2018-07-25T19:27:43.705Z,4.40
2018-07-25T19:30:24.615Z,3.80
2018-07-25T19:32:52.986Z,4.33
2018-07-25T19:35:33.224Z,4.10
2018-07-25T19:38:14.785Z,4.30
2018-07-25T19:40:55.699Z,3.90
2018-07-25T19:43:36.643Z,4.23
2018-07-25T19:46:16.940Z,3.70
2018-07-25T19:48:45.248Z,4.60
2018-07-25T19:51:27.684Z,3.30
2018-07-25T19:54:01.833Z,3.70
2018-07-25T19:56:42.914Z,3.75
2018-07-25T19:59:11.304Z,5.25
2018-07-25T20:01:40.226Z,17.33
2018-07-25T20:04:22.480Z,13.53
2018-07-25T20:06:50.883Z,6.15
2018-07-25T20:09:19.718Z,4.30
2018-07-25T20:12:00.538Z,3.37
2018-07-25T20:14:36.305Z,5.03
2018-07-25T20:17:04.740Z,3.70
2018-07-25T20:19:46.017Z,4.30
2018-07-25T20:22:14.587Z,9.98
2018-07-25T20:24:55.238Z,12.20
2018-07-25T20:27:24.933Z,3.47
2018-07-25T20:30:05.828Z,4.20
2018-07-25T20:32:34.144Z,3.22
2018-07-25T20:35:02.543Z,3.60
2018-07-25T20:37:30.977Z,5.35
2018-07-25T20:40:11.699Z,3.25
2018-07-25T20:42:52.356Z,15.40
2018-07-25T20:45:32.949Z,3.75
2018-07-25T20:48:01.410Z,4.40
2018-07-25T20:50:42.510Z,3.75
2018-07-25T20:53:23.221Z,3.62
2018-07-25T20:55:52.582Z,3.80
2018-07-25T20:58:33.526Z,3.77
2018-07-25T21:01:14.201Z,4.05
2018-07-25T21:03:54.937Z,3.30
2018-07-25T21:06:35.276Z,5.20
2018-07-25T21:09:17.009Z,3.62
2018-07-25T21:11:50.581Z,3.30
2018-07-25T21:14:18.966Z,3.30
2018-07-25T21:16:47.486Z,3.72
2018-07-25T21:19:27.999Z,3.43
2018-07-25T21:22:00.361Z,3.30
2018-07-25T21:24:28.675Z,3.20
2018-07-25T21:26:57.321Z,4.08
2018-07-25T21:29:38.142Z,3.80
2018-07-25T21:32:06.461Z,4.00
2018-07-25T21:34:47.680Z,3.98
2018-07-25T21:37:28.644Z,3.35
2018-07-25T21:40:09.337Z,3.70
2018-07-25T21:42:50.987Z,3.20
2018-07-25T21:45:19.313Z,3.40
2018-07-25T21:48:00.423Z,3.67
2018-07-25T21:50:41.049Z,5.10
2018-07-25T21:53:09.417Z,3.50
2018-07-25T21:55:49.654Z,3.37
2018-07-25T21:58:17.976Z,4.15
2018-07-25T22:01:03.213Z,3.60
2018-07-25T22:03:44.974Z,4.03
2018-07-25T22:06:25.592Z,3.20
2018-07-25T22:08:53.981Z,3.40
2018-07-25T22:11:34.111Z,3.55
2018-07-25T22:14:14.861Z,3.40
2018-07-25T22:16:43.050Z,3.30
2018-07-25T22:19:24.106Z,6.70
2018-07-25T22:22:05.170Z,5.67
2018-07-25T22:24:45.896Z,8.33
2018-07-25T22:27:26.381Z,5.10
2018-07-25T22:30:07.236Z,6.03
2018-07-25T22:32:35.550Z,4.10
2018-07-25T22:35:03.964Z,3.58
2018-07-25T22:37:32.366Z,5.08
2018-07-25T22:40:13.113Z,6.92
2018-07-25T22:42:42.200Z,3.95
2018-07-25T22:45:10.689Z,4.12
2018-07-25T22:47:39.593Z,4.62
2018-07-25T22:50:20.206Z,3.87
2018-07-25T22:52:48.273Z,5.25
2018-07-25T22:55:28.764Z,4.50
2018-07-25T22:57:58.444Z,5.20
2018-07-25T23:00:26.733Z,4.20
2018-07-25T23:03:07.094Z,4.97
2018-07-25T23:05:35.428Z,6.62
2018-07-25T23:08:15.751Z,9.18
2018-07-25T23:10:56.449Z,4.90
2018-07-25T23:13:25.382Z,4.42
2018-07-25T23:16:05.921Z,4.10
2018-07-25T23:18:35.100Z,4.72
2018-07-25T23:21:05.276Z,5.03
2018-07-25T23:23:39.194Z,4.50
2018-07-25T23:26:20.186Z,4.65
2018-07-25T23:29:01.236Z,4.30
2018-07-25T23:31:41.869Z,4.97
2018-07-25T23:34:10.342Z,4.80
2018-07-25T23:36:51.296Z,5.03
2018-07-25T23:39:21.613Z,4.50
2018-07-25T23:41:49.875Z,4.78
2018-07-25T23:44:21.544Z,4.28
2018-07-25T23:46:49.802Z,4.80
2018-07-25T23:49:18.002Z,4.67
2018-07-25T23:51:58.136Z,4.87
2018-07-25T23:54:28.508Z,4.50
2018-07-25T23:56:57.254Z,4.33
2018-07-25T23:59:26.817Z,4.70
